createdAt,value
2023-01-31T00:02:37.598Z,4.60
2023-01-31T00:07:37.530Z,4.60
2023-01-31T00:12:36.120Z,4.60
2023-01-31T00:17:34.367Z,4.60
2023-01-31T00:22:32.576Z,4.60
2023-01-31T00:27:32.525Z,4.60
2023-01-31T00:32:30.771Z,4.60
2023-01-31T00:37:29.003Z,4.60
2023-01-31T00:42:27.302Z,4.50
2023-01-31T00:47:26.901Z,4.60
2023-01-31T00:52:25.186Z,4.60
2023-01-31T00:57:23.461Z,4.70
2023-01-31T01:02:22.370Z,4.60
2023-01-31T01:07:23.819Z,4.60
2023-01-31T01:12:22.064Z,4.60
2023-01-31T01:17:20.276Z,4.60
2023-01-31T01:22:20.473Z,4.70
2023-01-31T01:27:20.567Z,4.70
2023-01-31T01:32:18.857Z,4.80
2023-01-31T01:37:20.295Z,4.80
2023-01-31T01:42:22.415Z,4.90
2023-01-31T01:47:30.471Z,4.80
2023-01-31T01:52:32.107Z,5.00
2023-01-31T01:57:36.232Z,5.00
2023-01-31T02:02:34.656Z,4.90
2023-01-31T02:07:33.231Z,5.00
2023-01-31T02:12:35.231Z,5.00
2023-01-31T02:17:33.517Z,5.00
2023-01-31T02:22:35.227Z,5.00
2023-01-31T02:28:05.479Z,5.00
2023-01-31T02:33:19.496Z,5.00
2023-01-31T02:38:32.241Z,5.00
2023-01-31T02:43:58.575Z,4.90
2023-01-31T02:49:04.396Z,4.80
2023-01-31T02:54:08.042Z,4.80
2023-01-31T02:59:09.754Z,4.70
2023-01-31T03:04:12.209Z,4.60
2023-01-31T03:09:22.345Z,4.50
2023-01-31T03:14:27.439Z,4.40
2023-01-31T03:19:35.589Z,4.40
2023-01-31T03:24:34.876Z,4.30
2023-01-31T03:29:39.196Z,4.40
2023-01-31T03:34:42.355Z,4.20
2023-01-31T03:39:48.090Z,4.20
2023-01-31T03:44:56.589Z,4.20
2023-01-31T03:49:59.612Z,4.10
2023-01-31T03:55:02.064Z,4.10
2023-01-31T04:00:04.672Z,4.10
2023-01-31T04:05:21.545Z,4.10
2023-01-31T04:10:24.471Z,4.00
2023-01-31T04:15:23.055Z,4.00
2023-01-31T04:20:22.735Z,4.00
2023-01-31T04:25:21.531Z,4.00
2023-01-31T04:30:20.810Z,4.00
2023-01-31T04:35:19.438Z,3.90
2023-01-31T04:40:19.798Z,3.90
2023-01-31T04:45:18.908Z,3.90
2023-01-31T04:50:17.902Z,3.90
2023-01-31T04:55:16.279Z,3.90
2023-01-31T05:00:16.943Z,3.90
2023-01-31T05:05:15.169Z,3.90
2023-01-31T05:10:13.863Z,3.90
2023-01-31T05:15:12.918Z,3.90
2023-01-31T05:20:13.285Z,4.00
2023-01-31T05:25:11.530Z,4.00
2023-01-31T05:30:11.260Z,4.00
2023-01-31T05:35:09.875Z,4.10
2023-01-31T05:40:11.629Z,4.20
2023-01-31T05:45:11.680Z,4.20
2023-01-31T05:50:11.149Z,4.30
2023-01-31T05:55:11.333Z,4.20
2023-01-31T06:00:10.864Z,4.30
2023-01-31T06:05:12.645Z,4.40
2023-01-31T06:10:15.999Z,4.40
2023-01-31T06:15:14.240Z,4.40
2023-01-31T06:20:13.037Z,4.40
2023-01-31T06:25:12.784Z,4.50
2023-01-31T06:30:12.412Z,4.50
2023-01-31T06:35:11.275Z,4.60
2023-01-31T06:40:11.097Z,4.60
2023-01-31T06:45:11.988Z,4.60
2023-01-31T06:50:12.298Z,4.60
2023-01-31T06:55:11.704Z,4.70
2023-01-31T07:00:13.865Z,4.70
2023-01-31T07:05:12.194Z,4.60
2023-01-31T07:10:11.807Z,4.60
2023-01-31T07:15:12.653Z,4.60
2023-01-31T07:20:12.322Z,4.60
2023-01-31T07:25:10.955Z,4.70
2023-01-31T07:30:10.484Z,4.60
2023-01-31T07:35:11.529Z,4.60
2023-01-31T07:40:11.422Z,4.70
2023-01-31T07:45:22.777Z,4.80
2023-01-31T07:50:23.487Z,4.90
2023-01-31T07:55:22.109Z,4.90
2023-01-31T08:00:39.371Z,4.90
2023-01-31T08:05:39.030Z,4.90
2023-01-31T08:10:37.328Z,4.90
2023-01-31T08:15:35.709Z,4.90
2023-01-31T08:20:34.005Z,4.90
2023-01-31T08:25:33.680Z,5.00
2023-01-31T08:30:32.772Z,5.00
2023-01-31T08:35:31.567Z,5.00
2023-01-31T08:40:30.355Z,5.00
2023-01-31T08:45:31.402Z,5.00
2023-01-31T08:50:32.785Z,5.00
2023-01-31T08:55:32.797Z,5.00
2023-01-31T09:00:33.684Z,5.10
2023-01-31T09:05:34.526Z,5.10
2023-01-31T09:10:32.818Z,5.10
2023-01-31T09:15:32.550Z,5.10
2023-01-31T09:20:31.051Z,5.20
2023-01-31T09:25:43.730Z,5.30
2023-01-31T09:30:46.622Z,5.30
2023-01-31T09:35:44.913Z,5.40
2023-01-31T09:40:43.951Z,5.50
2023-01-31T09:45:44.246Z,5.60
2023-01-31T09:50:48.644Z,5.70
2023-01-31T09:55:54.126Z,5.70
2023-01-31T10:01:01.976Z,5.80
2023-01-31T10:06:08.951Z,5.70
2023-01-31T10:11:12.690Z,5.70
2023-01-31T10:16:21.556Z,5.60
2023-01-31T10:21:26.430Z,5.80
2023-01-31T10:26:30.468Z,5.70
2023-01-31T10:31:33.891Z,5.90
2023-01-31T10:36:37.627Z,5.80
2023-01-31T10:41:48.204Z,5.80
2023-01-31T10:46:47.898Z,5.90
2023-01-31T10:52:08.910Z,5.80
2023-01-31T10:57:07.696Z,6.00
2023-01-31T11:02:06.304Z,6.00
2023-01-31T11:07:08.054Z,5.90
2023-01-31T11:12:09.980Z,6.10
2023-01-31T11:17:10.903Z,6.10
2023-01-31T11:22:20.012Z,6.10
2023-01-31T11:27:27.043Z,6.00
2023-01-31T11:32:27.383Z,6.00
2023-01-31T11:37:27.737Z,6.00
2023-01-31T11:42:26.512Z,6.10
2023-01-31T11:47:32.031Z,6.20
2023-01-31T11:52:34.843Z,6.20
2023-01-31T11:57:35.857Z,6.20
2023-01-31T12:02:38.726Z,6.20
2023-01-31T12:07:46.045Z,6.20
2023-01-31T12:12:47.942Z,6.20
2023-01-31T12:17:47.907Z,6.20
2023-01-31T12:22:54.675Z,6.30
2023-01-31T12:28:07.095Z,6.20
2023-01-31T12:33:25.771Z,6.10
2023-01-31T12:38:52.235Z,6.10
2023-01-31T12:44:16.467Z,6.10
2023-01-31T12:49:41.391Z,6.00
2023-01-31T12:55:01.014Z,5.90
2023-01-31T13:00:13.467Z,5.70
2023-01-31T13:05:22.916Z,5.70
2023-01-31T13:10:34.799Z,5.50
2023-01-31T13:15:41.789Z,5.50
2023-01-31T13:20:43.280Z,5.50
2023-01-31T13:25:47.739Z,5.40
2023-01-31T13:30:52.995Z,5.40
2023-01-31T13:36:03.038Z,5.50
2023-01-31T13:41:03.882Z,5.50
2023-01-31T13:46:05.659Z,5.50
2023-01-31T13:51:11.633Z,5.50
2023-01-31T13:56:14.248Z,5.40
2023-01-31T14:01:17.845Z,5.30
2023-01-31T14:06:15.983Z,5.40
2023-01-31T14:11:35.029Z,5.40
2023-01-31T14:16:39.752Z,5.40
2023-01-31T14:21:58.115Z,5.40
2023-01-31T14:26:59.491Z,5.30
2023-01-31T14:31:58.445Z,5.30
2023-01-31T14:37:12.638Z,5.40
2023-01-31T14:42:33.168Z,5.40
2023-01-31T14:47:43.326Z,5.40
2023-01-31T14:53:04.210Z,5.40
2023-01-31T14:58:06.188Z,5.40
2023-01-31T15:03:09.061Z,5.40
2023-01-31T15:08:40.141Z,5.40
2023-01-31T15:13:47.251Z,5.50
2023-01-31T15:18:51.336Z,5.50
2023-01-31T15:23:51.566Z,5.60
2023-01-31T15:28:51.473Z,5.60
2023-01-31T15:33:53.122Z,5.70
2023-01-31T15:38:56.953Z,5.70
2023-01-31T15:43:57.042Z,5.70
2023-01-31T15:48:58.541Z,5.80
2023-01-31T15:54:07.023Z,5.80
2023-01-31T15:59:12.083Z,5.70
2023-01-31T16:04:14.352Z,5.80
2023-01-31T16:09:25.498Z,5.80
2023-01-31T16:14:24.649Z,5.90
2023-01-31T16:19:27.872Z,5.90
2023-01-31T16:24:27.708Z,5.90
2023-01-31T16:29:38.744Z,5.90
2023-01-31T16:34:37.490Z,6.00
2023-01-31T16:39:39.989Z,6.00
2023-01-31T16:44:43.050Z,6.10
2023-01-31T16:49:41.583Z,6.10
2023-01-31T16:54:50.112Z,6.10
2023-01-31T16:59:50.917Z,6.20
2023-01-31T17:04:51.650Z,6.30
2023-01-31T17:09:56.636Z,6.30
2023-01-31T17:15:00.840Z,6.20
2023-01-31T17:20:00.935Z,6.30
2023-01-31T17:25:00.715Z,6.30
2023-01-31T17:29:58.968Z,6.20
2023-01-31T17:34:57.220Z,6.20
2023-01-31T17:39:55.468Z,6.20
2023-01-31T17:44:55.071Z,6.30
2023-01-31T17:49:54.617Z,6.20
2023-01-31T17:54:52.929Z,6.30
2023-01-31T17:59:52.390Z,6.30
2023-01-31T18:04:52.188Z,6.30
2023-01-31T18:09:51.441Z,6.30
2023-01-31T18:14:49.725Z,6.30
2023-01-31T18:19:48.157Z,6.30
2023-01-31T18:24:48.768Z,6.40
2023-01-31T18:29:47.026Z,6.50
2023-01-31T18:34:45.334Z,6.50
2023-01-31T18:39:43.670Z,6.60
2023-01-31T18:44:44.464Z,6.70
2023-01-31T18:49:43.319Z,6.90
2023-01-31T18:54:41.686Z,6.90
2023-01-31T18:59:42.951Z,6.80
2023-01-31T19:04:41.240Z,6.90
2023-01-31T19:09:39.480Z,6.80
2023-01-31T19:14:37.803Z,6.90
2023-01-31T19:19:37.413Z,6.90
2023-01-31T19:24:35.675Z,6.90
2023-01-31T19:29:34.128Z,6.90
2023-01-31T19:34:33.512Z,7.00
2023-01-31T19:39:33.162Z,7.00
2023-01-31T19:44:31.970Z,6.90
2023-01-31T19:49:30.281Z,6.10
2023-01-31T19:54:28.635Z,5.30
2023-01-31T19:59:28.239Z,5.00
2023-01-31T20:04:26.372Z,4.90
2023-01-31T20:09:25.260Z,4.90
2023-01-31T20:14:23.745Z,4.90
2023-01-31T20:19:23.592Z,5.00
2023-01-31T20:24:21.911Z,5.20
2023-01-31T20:29:20.164Z,5.30
2023-01-31T20:34:18.440Z,5.50
2023-01-31T20:39:18.067Z,5.60
2023-01-31T20:44:16.484Z,5.60
2023-01-31T20:49:14.885Z,5.60
2023-01-31T20:54:13.239Z,5.50
2023-01-31T20:59:13.011Z,5.50
2023-01-31T21:04:11.321Z,5.50
2023-01-31T21:09:10.112Z,5.50
2023-01-31T21:14:08.429Z,5.40
2023-01-31T21:19:08.101Z,5.40
2023-01-31T21:24:06.707Z,5.50
2023-01-31T21:29:05.260Z,5.50
2023-01-31T21:34:05.811Z,5.70
2023-01-31T21:39:05.526Z,5.70
2023-01-31T21:44:04.511Z,5.80
2023-01-31T21:49:03.075Z,5.90
2023-01-31T21:54:01.385Z,5.90
2023-01-31T21:59:01.081Z,6.00
2023-01-31T22:03:59.926Z,5.60
2023-01-31T22:08:59.894Z,5.00
2023-01-31T22:13:58.146Z,5.00
2023-01-31T22:18:59.085Z,5.00
2023-01-31T22:23:59.194Z,4.90
2023-01-31T22:28:59.606Z,4.90
2023-01-31T22:34:00.294Z,4.80
2023-01-31T22:38:58.753Z,4.80
2023-01-31T22:43:57.347Z,4.80
2023-01-31T22:48:56.228Z,4.90
2023-01-31T22:53:57.209Z,4.90
2023-01-31T22:58:59.550Z,5.00
2023-01-31T23:03:59.072Z,5.00
2023-01-31T23:08:59.127Z,5.00
2023-01-31T23:13:58.399Z,5.10
2023-01-31T23:18:56.879Z,5.10
2023-01-31T23:23:59.531Z,5.10
2023-01-31T23:28:57.866Z,5.30
2023-01-31T23:33:56.160Z,5.20
2023-01-31T23:38:54.466Z,5.30
2023-01-31T23:43:54.051Z,5.30
2023-01-31T23:48:52.316Z,5.30
2023-01-31T23:53:50.551Z,5.30
2023-01-31T23:58:48.902Z,5.30
